createdAt,value
2023-01-31T00:01:30.855Z,-1.18
2023-01-31T00:08:15.632Z,-1.14
2023-01-31T00:10:44.121Z,-1.14
2023-01-31T00:13:12.517Z,-1.13
2023-01-31T00:15:40.639Z,-1.13
2023-01-31T00:18:08.795Z,-1.13
2023-01-31T00:20:37.130Z,-1.12
2023-01-31T00:23:05.253Z,-1.10
2023-01-31T00:25:33.451Z,-1.10
2023-01-31T00:28:01.646Z,-1.09
2023-01-31T00:30:29.951Z,-1.09
2023-01-31T00:32:58.116Z,-1.09
2023-01-31T00:35:26.350Z,-1.09
2023-01-31T00:37:54.773Z,-1.09
2023-01-31T00:40:22.933Z,-1.09
2023-01-31T00:42:51.252Z,-1.07
2023-01-31T00:45:19.836Z,-1.06
2023-01-31T00:47:48.105Z,-1.04
2023-01-31T00:50:18.493Z,-1.03
2023-01-31T00:52:46.811Z,-1.02
2023-01-31T00:55:15.000Z,-1.00
2023-01-31T00:57:43.321Z,-0.99
2023-01-31T01:00:12.278Z,-0.99
2023-01-31T01:02:41.325Z,-0.98
2023-01-31T01:05:09.711Z,-0.99
2023-01-31T01:07:37.967Z,-0.99
2023-01-31T01:10:06.729Z,-0.99
2023-01-31T01:12:34.872Z,-0.98
2023-01-31T01:15:03.961Z,-0.98
2023-01-31T01:17:32.709Z,-0.98
2023-01-31T01:20:03.906Z,-0.97
2023-01-31T01:22:34.304Z,-0.97
2023-01-31T01:25:03.247Z,-0.96
2023-01-31T01:27:32.733Z,-0.95
2023-01-31T01:30:02.147Z,-0.92
2023-01-31T01:32:30.966Z,-0.92
2023-01-31T01:34:59.058Z,-0.90
2023-01-31T01:37:27.204Z,-0.89
2023-01-31T01:39:55.261Z,-0.88
2023-01-31T01:42:25.761Z,-0.88
2023-01-31T01:44:58.991Z,-0.88
2023-01-31T01:47:36.308Z,-0.87
2023-01-31T01:50:24.441Z,-0.86
2023-01-31T01:53:03.364Z,-0.84
2023-01-31T01:55:42.030Z,-0.83
2023-01-31T01:58:14.493Z,-0.82
2023-01-31T02:00:44.591Z,-0.80
2023-01-31T02:03:12.909Z,-0.78
2023-01-31T02:05:53.004Z,-0.77
2023-01-31T02:08:22.528Z,-0.75
2023-01-31T02:11:06.911Z,-0.75
2023-01-31T02:13:35.016Z,-0.74
2023-01-31T02:16:03.123Z,-0.73
2023-01-31T02:18:32.559Z,-0.73
2023-01-31T02:21:18.880Z,-0.72
2023-01-31T02:23:50.225Z,-0.71
2023-01-31T02:26:37.184Z,-0.68
2023-01-31T02:29:30.343Z,-0.66
2023-01-31T02:32:30.095Z,-0.65
2023-01-31T02:35:13.304Z,-0.64
2023-01-31T02:37:41.480Z,-0.63
2023-01-31T02:40:17.560Z,-0.63
2023-01-31T02:42:53.249Z,-0.63
2023-01-31T02:45:43.632Z,-0.62
2023-01-31T02:48:33.522Z,-0.62
2023-01-31T02:51:08.447Z,-0.59
2023-01-31T02:53:54.433Z,-0.59
2023-01-31T02:56:25.068Z,-0.59
2023-01-31T02:59:20.729Z,-0.58
2023-01-31T03:01:55.426Z,-0.57
2023-01-31T03:04:24.041Z,-0.55
2023-01-31T03:07:01.997Z,-0.53
2023-01-31T03:09:48.194Z,-0.53
2023-01-31T03:12:36.822Z,-0.53
2023-01-31T03:16:01.407Z,-0.53
2023-01-31T03:18:35.425Z,-0.54
2023-01-31T03:21:10.293Z,-0.52
2023-01-31T03:23:38.583Z,-0.51
2023-01-31T03:26:06.913Z,-0.50
2023-01-31T03:28:40.381Z,-0.49
2023-01-31T03:31:52.648Z,-0.48
2023-01-31T03:34:21.439Z,-0.46
2023-01-31T03:36:56.436Z,-0.44
2023-01-31T03:39:54.055Z,-0.43
2023-01-31T03:42:39.000Z,-0.42
2023-01-31T03:45:25.925Z,-0.40
2023-01-31T03:47:56.907Z,-0.38
2023-01-31T03:50:31.105Z,-0.37
2023-01-31T03:53:21.041Z,-0.36
2023-01-31T03:55:54.553Z,-0.34
2023-01-31T03:58:25.340Z,-0.33
2023-01-31T04:00:53.559Z,-0.32
2023-01-31T04:03:23.874Z,-0.30
2023-01-31T04:05:52.146Z,-0.28
2023-01-31T04:08:21.329Z,-0.25
2023-01-31T04:10:56.487Z,-0.23
2023-01-31T04:13:25.580Z,-0.22
2023-01-31T04:15:53.701Z,-0.20
2023-01-31T04:18:22.813Z,-0.19
2023-01-31T04:20:50.914Z,-0.18
2023-01-31T04:23:19.286Z,-0.17
2023-01-31T04:25:48.412Z,-0.17
2023-01-31T04:28:16.684Z,-0.15
2023-01-31T04:30:45.009Z,-0.14
2023-01-31T04:33:13.809Z,-0.12
2023-01-31T04:35:42.134Z,-0.10
2023-01-31T04:38:10.238Z,-0.08
2023-01-31T04:40:39.089Z,-0.06
2023-01-31T04:43:08.262Z,-0.05
2023-01-31T04:45:36.607Z,-0.03
2023-01-31T04:48:05.137Z,-0.02
2023-01-31T04:50:33.976Z,0.00
2023-01-31T04:53:02.184Z,0.01
2023-01-31T04:55:30.695Z,0.02
2023-01-31T04:57:58.853Z,0.03
2023-01-31T05:00:27.186Z,0.06
2023-01-31T05:02:55.537Z,0.07
2023-01-31T05:05:23.777Z,0.09
2023-01-31T05:07:52.089Z,0.10
2023-01-31T05:10:20.157Z,0.12
2023-01-31T05:12:48.413Z,0.13
2023-01-31T05:15:21.262Z,0.15
2023-01-31T05:17:53.691Z,0.15
2023-01-31T05:20:21.775Z,0.15
2023-01-31T05:22:49.927Z,0.16
2023-01-31T05:25:18.417Z,0.16
2023-01-31T05:27:46.904Z,0.17
2023-01-31T05:30:15.521Z,0.18
2023-01-31T05:32:46.960Z,0.20
2023-01-31T05:35:15.055Z,0.20
2023-01-31T05:37:43.513Z,0.21
2023-01-31T05:40:15.847Z,0.22
2023-01-31T05:42:44.022Z,0.22
2023-01-31T05:45:12.590Z,0.24
2023-01-31T05:47:41.007Z,0.24
2023-01-31T05:50:10.842Z,0.24
2023-01-31T05:52:39.426Z,0.24
2023-01-31T05:55:07.998Z,0.25
2023-01-31T05:57:36.501Z,0.26
2023-01-31T06:00:05.084Z,0.27
2023-01-31T06:02:40.732Z,0.28
2023-01-31T06:05:09.692Z,0.28
2023-01-31T06:07:46.862Z,0.29
2023-01-31T06:10:15.658Z,0.30
2023-01-31T06:12:43.840Z,0.31
2023-01-31T06:15:12.498Z,0.31
2023-01-31T06:17:41.287Z,0.30
2023-01-31T06:20:10.213Z,0.33
2023-01-31T06:22:38.576Z,0.36
2023-01-31T06:25:08.659Z,0.41
2023-01-31T06:27:40.715Z,0.46
2023-01-31T06:30:09.591Z,0.50
2023-01-31T06:32:37.755Z,0.54
2023-01-31T06:35:06.182Z,0.57
2023-01-31T06:37:36.118Z,0.60
2023-01-31T06:40:04.761Z,0.63
2023-01-31T06:42:32.986Z,0.65
2023-01-31T06:45:01.409Z,0.66
2023-01-31T06:47:30.617Z,0.68
2023-01-31T06:49:59.077Z,0.70
2023-01-31T06:52:27.305Z,0.73
2023-01-31T06:54:55.481Z,0.75
2023-01-31T06:57:23.692Z,0.78
2023-01-31T06:59:53.410Z,0.80
2023-01-31T07:02:21.725Z,0.80
2023-01-31T07:04:51.306Z,0.81
2023-01-31T07:07:23.411Z,0.83
2023-01-31T07:09:51.578Z,0.87
2023-01-31T07:12:19.834Z,0.89
2023-01-31T07:14:47.948Z,0.92
2023-01-31T07:17:16.643Z,0.96
2023-01-31T07:19:44.961Z,0.99
2023-01-31T07:22:13.301Z,1.03
2023-01-31T07:24:41.648Z,1.07
2023-01-31T07:27:13.166Z,1.05
2023-01-31T07:29:41.357Z,1.02
2023-01-31T07:32:09.783Z,0.99
2023-01-31T07:34:38.998Z,0.95
2023-01-31T07:37:07.286Z,0.92
2023-01-31T07:39:35.742Z,0.90
2023-01-31T07:42:08.148Z,0.89
2023-01-31T07:44:36.991Z,0.90
2023-01-31T07:47:05.086Z,0.91
2023-01-31T07:49:33.920Z,0.91
2023-01-31T07:52:02.213Z,0.93
2023-01-31T07:54:30.764Z,0.95
2023-01-31T07:56:58.898Z,0.99
2023-01-31T07:59:27.058Z,1.02
2023-01-31T08:02:13.726Z,1.02
2023-01-31T08:04:41.856Z,1.06
2023-01-31T08:07:10.385Z,1.11
2023-01-31T08:09:39.289Z,1.18
2023-01-31T08:12:08.237Z,1.25
2023-01-31T08:14:36.435Z,1.31
2023-01-31T08:17:07.003Z,1.37
2023-01-31T08:19:36.110Z,1.44
2023-01-31T08:22:07.254Z,1.49
2023-01-31T08:24:36.243Z,1.54
2023-01-31T08:27:04.791Z,1.59
2023-01-31T08:29:33.149Z,1.63
2023-01-31T08:32:03.257Z,1.68
2023-01-31T08:34:33.424Z,1.72
2023-01-31T08:37:02.059Z,1.74
2023-01-31T08:39:30.533Z,1.77
2023-01-31T08:41:58.681Z,1.78
2023-01-31T08:44:26.886Z,1.78
2023-01-31T08:46:55.276Z,1.80
2023-01-31T08:49:23.512Z,1.79
2023-01-31T08:51:54.406Z,1.80
2023-01-31T08:54:22.539Z,1.78
2023-01-31T08:56:50.810Z,1.74
2023-01-31T08:59:19.032Z,1.72
2023-01-31T09:01:48.123Z,1.73
2023-01-31T09:04:16.421Z,1.75
2023-01-31T09:06:44.810Z,1.74
2023-01-31T09:09:13.829Z,1.74
2023-01-31T09:11:42.067Z,1.76
2023-01-31T09:14:11.149Z,1.79
2023-01-31T09:16:40.423Z,1.82
2023-01-31T09:19:09.515Z,1.85
2023-01-31T09:21:38.398Z,1.90
2023-01-31T09:24:06.919Z,1.95
2023-01-31T09:26:35.160Z,2.00
2023-01-31T09:29:03.700Z,2.06
2023-01-31T09:31:33.368Z,2.08
2023-01-31T09:34:01.852Z,2.04
2023-01-31T09:36:31.057Z,2.01
2023-01-31T09:38:59.631Z,1.99
2023-01-31T09:41:37.324Z,1.98
2023-01-31T09:44:07.590Z,1.99
2023-01-31T09:47:04.452Z,2.00
2023-01-31T09:49:37.438Z,2.01
2023-01-31T09:52:05.682Z,2.07
2023-01-31T09:54:36.272Z,2.10
2023-01-31T09:57:22.758Z,2.09
2023-01-31T10:00:13.377Z,2.06
2023-01-31T10:03:06.452Z,2.03
2023-01-31T10:05:41.106Z,2.00
2023-01-31T13:28:57.457Z,2.47
2023-01-31T13:31:30.783Z,2.50
2023-01-31T13:34:05.278Z,2.50
2023-01-31T13:36:40.875Z,2.49
2023-01-31T13:39:16.012Z,2.48
2023-01-31T13:41:50.532Z,2.46
2023-01-31T13:44:20.903Z,2.45
2023-01-31T13:46:51.279Z,2.44
2023-01-31T13:49:23.745Z,2.43
2023-01-31T13:51:59.281Z,2.43
2023-01-31T13:54:37.216Z,2.44
2023-01-31T13:57:06.263Z,2.45
2023-01-31T13:59:37.911Z,2.45
2023-01-31T14:02:08.964Z,2.44
2023-01-31T14:04:40.301Z,2.45
2023-01-31T14:07:19.636Z,2.46
2023-01-31T14:09:51.599Z,2.49
2023-01-31T14:12:19.827Z,2.51
2023-01-31T14:14:48.841Z,2.50
2023-01-31T14:17:29.299Z,2.50
2023-01-31T14:20:03.497Z,2.52
2023-01-31T14:22:36.533Z,2.54
2023-01-31T14:25:14.926Z,2.53
2023-01-31T14:27:51.422Z,2.53
2023-01-31T14:30:42.366Z,2.53
2023-01-31T14:33:13.548Z,2.55
2023-01-31T14:35:51.921Z,2.56
2023-01-31T14:38:43.335Z,2.58
2023-01-31T14:41:33.330Z,2.58
2023-01-31T14:44:05.081Z,2.57
2023-01-31T14:46:34.617Z,2.58
2023-01-31T14:49:24.667Z,2.59
2023-01-31T14:52:43.610Z,2.60
2023-01-31T14:55:26.710Z,2.59
2023-01-31T14:57:58.532Z,2.60
2023-01-31T15:00:29.183Z,2.62
2023-01-31T15:03:02.253Z,2.62
2023-01-31T15:05:36.733Z,2.62
2023-01-31T15:08:14.691Z,2.62
2023-01-31T15:11:05.005Z,2.61
2023-01-31T15:13:37.912Z,2.62
2023-01-31T15:16:24.513Z,2.61
2023-01-31T15:19:20.418Z,2.61
2023-01-31T15:21:53.491Z,2.60
2023-01-31T15:24:35.905Z,2.59
2023-01-31T15:27:04.812Z,2.59
2023-01-31T15:29:44.257Z,2.58
2023-01-31T15:32:27.128Z,2.57
2023-01-31T15:35:34.285Z,2.57
2023-01-31T15:38:32.860Z,2.58
2023-01-31T15:41:07.594Z,2.58
2023-01-31T15:43:39.708Z,2.58
2023-01-31T15:46:36.100Z,2.57
2023-01-31T15:49:32.722Z,2.58
2023-01-31T15:52:06.191Z,2.58
2023-01-31T15:54:35.164Z,2.58
2023-01-31T15:57:03.512Z,2.59
2023-01-31T15:59:33.123Z,2.59
2023-01-31T16:02:02.545Z,2.60
2023-01-31T16:04:30.932Z,2.60
2023-01-31T16:07:01.468Z,2.60
2023-01-31T16:09:31.172Z,2.59
2023-01-31T16:11:59.676Z,2.60
2023-01-31T16:14:28.276Z,2.60
2023-01-31T16:16:57.152Z,2.60
2023-01-31T16:19:30.869Z,2.60
2023-01-31T16:21:59.325Z,2.60
2023-01-31T16:24:27.615Z,2.60
2023-01-31T16:27:01.833Z,2.57
2023-01-31T16:29:38.378Z,2.54
2023-01-31T16:32:23.063Z,2.52
2023-01-31T16:34:58.496Z,2.50
2023-01-31T16:37:36.672Z,2.47
2023-01-31T16:40:08.531Z,2.44
2023-01-31T16:42:38.845Z,2.43
2023-01-31T16:45:26.972Z,2.42
2023-01-31T16:47:56.518Z,2.40
2023-01-31T16:50:41.807Z,2.39
2023-01-31T16:53:25.488Z,2.38
2023-01-31T16:56:15.513Z,2.36
2023-01-31T16:58:52.584Z,2.36
2023-01-31T17:01:23.677Z,2.34
2023-01-31T17:04:04.071Z,2.33
2023-01-31T17:06:32.500Z,2.31
2023-01-31T17:09:06.083Z,2.30
2023-01-31T17:11:42.788Z,2.27
2023-01-31T17:14:12.386Z,2.26
2023-01-31T17:16:40.440Z,2.24
2023-01-31T17:19:08.807Z,2.23
2023-01-31T17:21:41.183Z,2.22
2023-01-31T17:24:16.949Z,2.21
2023-01-31T17:26:45.983Z,2.21
2023-01-31T17:29:14.071Z,2.19
2023-01-31T17:31:42.398Z,2.19
2023-01-31T17:34:14.375Z,2.18
2023-01-31T17:36:46.467Z,2.19
2023-01-31T17:39:15.059Z,2.20
2023-01-31T17:41:46.893Z,2.21
2023-01-31T17:44:15.512Z,2.21
2023-01-31T17:46:44.321Z,2.21
2023-01-31T17:49:14.515Z,2.20
2023-01-31T17:51:42.731Z,2.19
2023-01-31T17:54:11.500Z,2.17
2023-01-31T17:56:39.729Z,2.17
2023-01-31T17:59:12.339Z,2.15
2023-01-31T18:01:43.541Z,2.12
2023-01-31T18:04:11.699Z,2.09
2023-01-31T18:06:40.559Z,2.04
2023-01-31T18:09:10.246Z,1.99
2023-01-31T18:11:39.017Z,1.94
2023-01-31T18:14:07.287Z,1.91
2023-01-31T18:16:35.331Z,1.89
2023-01-31T18:19:03.578Z,1.88
2023-01-31T18:21:31.645Z,1.87
2023-01-31T18:24:00.524Z,1.87
2023-01-31T18:26:28.756Z,1.88
2023-01-31T18:28:57.679Z,1.88
2023-01-31T18:31:26.207Z,1.88
2023-01-31T18:33:54.308Z,1.88
2023-01-31T18:36:22.442Z,1.87
2023-01-31T18:38:50.768Z,1.86
2023-01-31T18:41:19.750Z,1.85
2023-01-31T18:43:48.235Z,1.86
2023-01-31T18:46:17.274Z,1.85
2023-01-31T18:48:45.544Z,1.87
2023-01-31T18:51:16.670Z,1.88
2023-01-31T18:53:46.098Z,1.88
2023-01-31T18:56:17.174Z,1.88
2023-01-31T18:58:45.798Z,1.88
2023-01-31T19:01:17.897Z,1.89
2023-01-31T19:03:46.992Z,1.90
2023-01-31T19:06:18.516Z,1.89
2023-01-31T22:30:53.619Z,1.32
2023-01-31T22:33:21.985Z,1.33
2023-01-31T22:35:51.744Z,1.32
2023-01-31T22:38:19.909Z,1.32
2023-01-31T22:40:48.001Z,1.31
2023-01-31T22:43:17.938Z,1.31
2023-01-31T22:45:46.830Z,1.30
2023-01-31T22:48:16.901Z,1.29
2023-01-31T22:50:45.113Z,1.28
2023-01-31T22:53:13.167Z,1.29
2023-01-31T22:55:41.909Z,1.30
2023-01-31T22:58:10.091Z,1.30
2023-01-31T23:00:40.106Z,1.30
2023-01-31T23:03:08.298Z,1.30
2023-01-31T23:05:40.155Z,1.30
2023-01-31T23:08:08.760Z,1.31
2023-01-31T23:10:36.828Z,1.31
2023-01-31T23:13:05.729Z,1.32
2023-01-31T23:15:34.073Z,1.32
2023-01-31T23:18:22.007Z,1.32
2023-01-31T23:20:50.380Z,1.30
2023-01-31T23:23:18.451Z,1.29
2023-01-31T23:25:46.718Z,1.29
2023-01-31T23:28:15.158Z,1.28
2023-01-31T23:30:46.803Z,1.28
2023-01-31T23:33:15.027Z,1.28
2023-01-31T23:35:43.563Z,1.29
2023-01-31T23:38:11.879Z,1.29
2023-01-31T23:40:40.433Z,1.29
2023-01-31T23:43:09.106Z,1.29
2023-01-31T23:45:37.236Z,1.29
2023-01-31T23:48:05.458Z,1.29
2023-01-31T23:50:33.453Z,1.28
2023-01-31T23:53:05.202Z,1.27
2023-01-31T23:55:33.505Z,1.27
2023-01-31T23:58:01.627Z,1.28
